Terminal Aerodrome Forecast
Issued by NWS

Current Version | Previous Version | Text Only | Print | Product List | Glossary Off
Versions: 1 2 3 4 5 6 7 8 9 10 11 12 13 14 15

000
FTUS41 KPBZ 261721
TAFMGW
TAF
KMGW 261721Z 2618/2718 18006KT P6SM BKN040
     FM270000 18005KT P6SM VCSH BKN050
      TEMPO 2701/2705 3SM -SHRA BKN025
     FM270500 20003KT 5SM -SHRA BR BKN025
     FM271300 21008KT P6SM BKN035=

USA.gov is the U.S. government's official web portal to all federal, state and local government web resources and services.